createdAt,value
2022-10-14T00:00:12.022Z,996.40
2022-10-14T00:01:12.001Z,996.38
2022-10-14T00:02:12.093Z,996.38
2022-10-14T00:03:11.961Z,996.39
2022-10-14T00:04:11.964Z,996.34
2022-10-14T00:05:11.911Z,996.36
2022-10-14T00:06:11.889Z,996.31
2022-10-14T00:07:11.879Z,996.35
2022-10-14T00:08:11.851Z,996.34
2022-10-14T00:09:11.843Z,996.34
2022-10-14T00:10:11.821Z,996.32
2022-10-14T00:11:11.809Z,996.34
2022-10-14T00:12:11.767Z,996.35
2022-10-14T00:13:11.741Z,996.35
2022-10-14T00:14:11.720Z,996.36
2022-10-14T00:15:11.705Z,996.35
2022-10-14T00:16:11.685Z,996.31
2022-10-14T00:17:11.658Z,996.37
2022-10-14T00:18:11.666Z,996.34
2022-10-14T00:19:11.619Z,996.34
2022-10-14T00:20:11.609Z,996.32
2022-10-14T00:21:11.585Z,996.33
2022-10-14T00:22:11.545Z,996.34
2022-10-14T00:23:11.531Z,996.34
2022-10-14T00:24:11.505Z,996.32
2022-10-14T00:25:11.487Z,996.35
2022-10-14T00:26:11.457Z,996.31
2022-10-14T00:27:11.449Z,996.27
2022-10-14T00:28:11.414Z,996.26
2022-10-14T00:29:11.413Z,996.28
2022-10-14T00:30:11.372Z,996.29
2022-10-14T00:31:11.350Z,996.32
2022-10-14T00:32:11.326Z,996.33
2022-10-14T00:33:11.305Z,996.32
2022-10-14T00:34:11.305Z,996.29
2022-10-14T00:35:11.261Z,996.31
2022-10-14T00:36:11.240Z,996.33
2022-10-14T00:37:11.222Z,996.31
2022-10-14T00:38:11.208Z,996.32
2022-10-14T00:39:11.176Z,996.32
2022-10-14T00:40:11.163Z,996.31
2022-10-14T00:41:11.133Z,996.34
2022-10-14T00:42:11.115Z,996.33
2022-10-14T00:43:11.090Z,996.34
2022-10-14T00:44:11.066Z,996.32
2022-10-14T00:45:11.050Z,996.33
2022-10-14T00:46:11.058Z,996.31
2022-10-14T00:47:10.996Z,996.30
2022-10-14T00:48:10.986Z,996.30
2022-10-14T00:49:10.969Z,996.33
2022-10-14T00:50:10.941Z,996.32
2022-10-14T00:51:10.921Z,996.33
2022-10-14T00:52:10.888Z,996.30
2022-10-14T00:53:10.883Z,996.28
2022-10-14T00:54:10.855Z,996.30
2022-10-14T00:55:10.828Z,996.27
2022-10-14T00:56:10.842Z,996.28
2022-10-14T00:57:10.788Z,996.27
2022-10-14T00:58:10.763Z,996.23
2022-10-14T00:59:10.752Z,996.24
2022-10-14T01:00:10.741Z,996.26
2022-10-14T01:01:10.744Z,996.25
2022-10-14T01:02:10.688Z,996.27
2022-10-14T01:03:10.706Z,996.25
2022-10-14T01:04:10.649Z,996.25
2022-10-14T01:05:10.637Z,996.20
2022-10-14T01:06:10.590Z,996.21
2022-10-14T01:07:10.579Z,996.20
2022-10-14T01:08:10.546Z,996.22
2022-10-14T01:09:10.525Z,996.15
2022-10-14T01:10:10.502Z,996.17
2022-10-14T01:11:10.484Z,996.19
2022-10-14T01:12:28.239Z,996.15
2022-10-14T01:13:10.447Z,996.17
2022-10-14T01:14:10.420Z,996.12
2022-10-14T01:15:10.395Z,996.12
2022-10-14T01:16:10.372Z,996.12
2022-10-14T01:17:10.351Z,996.08
2022-10-14T01:18:10.341Z,996.07
2022-10-14T01:19:10.305Z,996.10
2022-10-14T01:20:10.372Z,996.10
2022-10-14T01:21:10.298Z,996.12
2022-10-14T01:22:10.254Z,996.09
2022-10-14T01:23:10.223Z,996.11
2022-10-14T01:24:10.206Z,996.13
2022-10-14T01:25:10.181Z,996.08
2022-10-14T01:26:10.162Z,996.11
2022-10-14T01:27:10.136Z,996.09
2022-10-14T01:28:10.111Z,996.09
2022-10-14T01:29:10.092Z,996.10
2022-10-14T01:30:10.103Z,996.04
2022-10-14T01:31:10.055Z,996.09
2022-10-14T01:32:10.030Z,996.08
2022-10-14T01:33:10.034Z,996.06
2022-10-14T01:34:09.986Z,996.05
2022-10-14T01:35:09.965Z,996.06
2022-10-14T01:36:09.943Z,996.02
2022-10-14T01:37:09.920Z,996.03
2022-10-14T01:38:09.903Z,996.06
2022-10-14T01:39:09.873Z,996.02
2022-10-14T01:40:09.854Z,996.01
2022-10-14T01:41:09.831Z,996.04
2022-10-14T01:42:09.806Z,996.04
2022-10-14T01:43:09.845Z,996.01
2022-10-14T01:44:09.779Z,995.99
2022-10-14T01:45:09.750Z,995.99
2022-10-14T01:46:09.729Z,995.93
2022-10-14T01:47:09.704Z,995.98
2022-10-14T01:48:09.685Z,995.98
2022-10-14T01:49:09.663Z,995.99
2022-10-14T01:50:09.635Z,995.97
2022-10-14T01:51:09.618Z,995.95
2022-10-14T01:52:09.597Z,995.95
2022-10-14T01:53:09.573Z,995.95
2022-10-14T01:54:09.552Z,995.92
2022-10-14T01:55:09.533Z,995.96
2022-10-14T01:56:09.514Z,995.95
2022-10-14T01:57:09.494Z,995.91
2022-10-14T01:58:09.461Z,995.90
2022-10-14T01:59:09.454Z,995.93
2022-10-14T02:00:09.432Z,995.87
2022-10-14T02:01:09.390Z,995.86
2022-10-14T02:02:09.426Z,995.83
2022-10-14T02:03:09.357Z,995.82
2022-10-14T02:04:09.345Z,995.81
2022-10-14T02:05:09.311Z,995.77
2022-10-14T02:06:09.310Z,995.82
2022-10-14T02:07:09.285Z,995.77
2022-10-14T02:08:09.248Z,995.75
2022-10-14T02:09:09.239Z,995.74
2022-10-14T02:10:09.220Z,995.71
2022-10-14T02:11:09.209Z,995.74
2022-10-14T02:12:09.160Z,995.73
2022-10-14T02:13:09.142Z,995.69
2022-10-14T02:14:09.138Z,995.67
2022-10-14T02:15:09.104Z,995.68
2022-10-14T02:16:09.081Z,995.68
2022-10-14T02:17:09.047Z,995.65
2022-10-14T02:18:09.081Z,995.67
2022-10-14T02:19:09.019Z,995.64
2022-10-14T02:20:09.034Z,995.65
2022-10-14T02:21:08.967Z,995.60
2022-10-14T02:22:08.953Z,995.58
2022-10-14T02:23:08.925Z,995.58
2022-10-14T02:24:08.929Z,995.60
2022-10-14T02:25:08.880Z,995.54
2022-10-14T02:26:08.862Z,995.54
2022-10-14T02:27:08.838Z,995.54
2022-10-14T02:28:08.835Z,995.49
2022-10-14T02:29:08.788Z,995.50
2022-10-14T02:30:08.778Z,995.47
2022-10-14T02:31:08.751Z,995.45
2022-10-14T02:32:08.733Z,995.46
2022-10-14T02:33:08.710Z,995.47
2022-10-14T02:34:08.678Z,995.43
2022-10-14T02:35:08.664Z,995.44
2022-10-14T02:36:08.640Z,995.39
2022-10-14T02:37:08.614Z,995.38
2022-10-14T02:38:08.601Z,995.40
2022-10-14T02:39:08.574Z,995.39
2022-10-14T02:40:08.550Z,995.39
2022-10-14T02:41:08.545Z,995.37
2022-10-14T02:42:08.505Z,995.36
2022-10-14T02:43:08.488Z,995.39
2022-10-14T02:44:08.478Z,995.35
2022-10-14T02:45:08.441Z,995.36
2022-10-14T02:46:08.425Z,995.35
2022-10-14T02:47:08.402Z,995.35
2022-10-14T02:48:08.377Z,995.37
2022-10-14T02:49:08.360Z,995.33
2022-10-14T02:50:08.336Z,995.32
2022-10-14T02:51:08.308Z,995.29
2022-10-14T02:52:08.286Z,995.31
2022-10-14T02:53:08.267Z,995.33
2022-10-14T02:54:08.252Z,995.28
2022-10-14T02:55:08.226Z,995.27
2022-10-14T02:56:08.211Z,995.24
2022-10-14T02:57:08.184Z,995.30
2022-10-14T02:58:08.198Z,995.30
2022-10-14T02:59:08.134Z,995.27
2022-10-14T03:00:08.116Z,995.27
2022-10-14T03:01:08.091Z,995.28
2022-10-14T03:02:08.110Z,995.23
2022-10-14T03:03:08.061Z,995.24
2022-10-14T03:04:08.040Z,995.26
2022-10-14T03:05:08.029Z,995.19
2022-10-14T03:06:07.980Z,995.19
2022-10-14T03:07:07.962Z,995.16
2022-10-14T03:08:07.937Z,995.15
2022-10-14T03:09:07.932Z,995.12
2022-10-14T03:10:07.896Z,995.15
2022-10-14T03:11:07.876Z,995.12
2022-10-14T03:12:07.859Z,995.09
2022-10-14T03:13:07.833Z,995.13
2022-10-14T03:14:07.805Z,995.12
2022-10-14T03:15:07.783Z,995.11
2022-10-14T03:16:07.768Z,995.13
2022-10-14T03:17:07.785Z,995.11
2022-10-14T03:18:07.728Z,995.11
2022-10-14T03:19:07.707Z,995.11
2022-10-14T03:20:07.696Z,995.12
2022-10-14T03:21:07.672Z,995.12
2022-10-14T03:22:07.639Z,995.05
2022-10-14T03:23:07.633Z,995.07
2022-10-14T03:24:07.605Z,995.09
2022-10-14T03:25:07.577Z,995.04
2022-10-14T03:26:11.790Z,995.06
2022-10-14T03:27:07.533Z,995.06
2022-10-14T03:28:07.527Z,995.01
2022-10-14T03:29:07.484Z,995.01
2022-10-14T03:30:07.499Z,995.02
2022-10-14T03:31:07.452Z,994.98
2022-10-14T03:32:07.456Z,994.97
2022-10-14T03:33:08.413Z,994.98
2022-10-14T03:34:07.385Z,994.99
2022-10-14T03:35:07.388Z,995.02
2022-10-14T03:36:07.367Z,994.97
2022-10-14T03:37:07.383Z,994.99
2022-10-14T03:38:07.318Z,994.97
2022-10-14T03:39:07.275Z,995.01
2022-10-14T03:40:07.249Z,994.96
2022-10-14T03:41:07.242Z,994.96
2022-10-14T03:42:07.203Z,994.95
2022-10-14T03:43:07.213Z,994.90
2022-10-14T03:44:07.157Z,994.93
2022-10-14T03:45:07.145Z,994.90
2022-10-14T03:46:07.121Z,994.84
2022-10-14T03:47:07.098Z,994.82
2022-10-14T03:48:07.069Z,994.80
2022-10-14T03:49:07.051Z,994.76
2022-10-14T03:50:07.031Z,994.78
2022-10-14T03:51:07.012Z,994.79
2022-10-14T03:52:07.007Z,994.80
2022-10-14T03:53:06.980Z,994.79
2022-10-14T03:54:06.939Z,994.80
2022-10-14T03:55:06.979Z,994.75
2022-10-14T03:56:06.922Z,994.75
2022-10-14T03:57:06.912Z,994.78
2022-10-14T03:58:06.853Z,994.69
2022-10-14T03:59:06.830Z,994.74
2022-10-14T04:00:06.807Z,994.81
2022-10-14T04:01:06.786Z,994.76
2022-10-14T04:02:06.868Z,994.73
2022-10-14T04:03:06.736Z,994.72
2022-10-14T04:04:06.725Z,994.72
2022-10-14T04:05:06.697Z,994.70
2022-10-14T04:06:06.677Z,994.68
2022-10-14T04:07:06.658Z,994.67
2022-10-14T04:08:06.628Z,994.71
2022-10-14T04:09:06.609Z,994.71
2022-10-14T04:10:06.594Z,994.69
2022-10-14T04:11:06.572Z,994.68
2022-10-14T04:12:06.552Z,994.68
2022-10-14T04:13:06.520Z,994.65
2022-10-14T04:14:06.503Z,994.70
2022-10-14T04:15:06.499Z,994.69
2022-10-14T04:16:06.466Z,994.66
2022-10-14T04:17:06.468Z,994.69
2022-10-14T04:18:06.413Z,994.69
2022-10-14T04:19:06.391Z,994.70
2022-10-14T04:20:06.377Z,994.70
2022-10-14T04:21:06.347Z,994.66
2022-10-14T04:22:06.329Z,994.68
2022-10-14T04:23:06.302Z,994.68
2022-10-14T04:24:08.537Z,994.62
2022-10-14T04:25:06.268Z,994.63
2022-10-14T04:26:06.251Z,994.64
2022-10-14T04:27:06.217Z,994.63
2022-10-14T04:28:06.194Z,994.65
2022-10-14T04:29:06.201Z,994.64
2022-10-14T04:30:06.154Z,994.65
2022-10-14T04:31:06.137Z,994.59
2022-10-14T04:32:06.139Z,994.63
2022-10-14T04:33:06.107Z,994.63
2022-10-14T04:34:06.071Z,994.63
2022-10-14T04:35:06.045Z,994.63
2022-10-14T04:36:06.019Z,994.63
2022-10-14T04:37:06.004Z,994.64
2022-10-14T04:38:05.973Z,994.65
2022-10-14T04:39:05.953Z,994.67
2022-10-14T04:40:05.968Z,994.66
2022-10-14T04:41:05.915Z,994.65
2022-10-14T04:42:05.901Z,994.62
2022-10-14T04:43:05.874Z,994.62
2022-10-14T04:44:05.859Z,994.62
2022-10-14T04:45:05.833Z,994.63
2022-10-14T04:46:05.803Z,994.63
2022-10-14T04:47:05.783Z,994.66
2022-10-14T04:48:05.802Z,994.63
2022-10-14T04:49:05.741Z,994.66
2022-10-14T04:50:05.721Z,994.66
2022-10-14T04:51:05.738Z,994.67
2022-10-14T04:52:05.692Z,994.66
2022-10-14T04:53:08.480Z,994.66
2022-10-14T04:54:05.645Z,994.64
2022-10-14T04:55:05.604Z,994.63
2022-10-14T04:56:05.592Z,994.63
2022-10-14T04:57:05.563Z,994.56
2022-10-14T04:58:05.561Z,994.56
2022-10-14T04:59:05.521Z,994.54
2022-10-14T05:00:05.553Z,994.53
2022-10-14T05:01:05.506Z,994.47
2022-10-14T05:02:05.553Z,994.45
2022-10-14T05:03:05.438Z,994.42
2022-10-14T05:04:05.431Z,994.42
2022-10-14T05:05:05.389Z,994.44
2022-10-14T05:06:05.368Z,994.39
2022-10-14T05:07:05.350Z,994.43
2022-10-14T05:08:05.333Z,994.38
2022-10-14T05:09:05.327Z,994.44
2022-10-14T05:10:05.277Z,994.36
2022-10-14T05:11:05.253Z,994.30
2022-10-14T05:12:05.259Z,994.30
2022-10-14T05:13:05.216Z,994.32
2022-10-14T05:14:05.196Z,994.30
2022-10-14T05:15:05.188Z,994.28
2022-10-14T05:16:05.151Z,994.24
2022-10-14T05:17:05.138Z,994.28
2022-10-14T05:18:05.180Z,994.26
2022-10-14T05:19:05.096Z,994.25
2022-10-14T05:20:05.086Z,994.24
2022-10-14T05:21:05.041Z,994.19
2022-10-14T05:22:05.021Z,994.24
2022-10-14T05:23:05.005Z,994.27
2022-10-14T05:24:04.973Z,994.22
2022-10-14T05:25:04.985Z,994.20
2022-10-14T05:26:04.954Z,994.18
2022-10-14T05:27:04.925Z,994.20
2022-10-14T05:28:04.928Z,994.20
2022-10-14T05:29:04.874Z,994.22
2022-10-14T05:30:04.852Z,994.18
2022-10-14T05:31:04.828Z,994.20
2022-10-14T05:32:04.822Z,994.17
2022-10-14T05:33:04.779Z,994.22
2022-10-14T05:34:04.792Z,994.25
2022-10-14T05:35:04.772Z,994.27
2022-10-14T05:36:04.716Z,994.20
2022-10-14T05:37:04.694Z,994.22
2022-10-14T05:38:04.675Z,994.18
2022-10-14T05:39:04.670Z,994.22
2022-10-14T05:40:04.712Z,994.20
2022-10-14T05:41:04.604Z,994.21
2022-10-14T05:42:04.589Z,994.20
2022-10-14T05:43:04.566Z,994.18
2022-10-14T05:44:04.543Z,994.20
2022-10-14T05:45:04.517Z,994.21
2022-10-14T05:46:04.500Z,994.19
2022-10-14T05:47:04.475Z,994.14
2022-10-14T05:48:04.457Z,994.14
2022-10-14T05:49:04.424Z,994.16
2022-10-14T05:50:04.418Z,994.14
2022-10-14T05:51:04.415Z,994.12
2022-10-14T05:52:04.396Z,994.16
2022-10-14T05:53:04.346Z,994.16
2022-10-14T05:54:04.323Z,994.16
2022-10-14T05:55:04.332Z,994.12
2022-10-14T05:56:04.279Z,994.14
2022-10-14T05:57:04.262Z,994.18
2022-10-14T05:58:04.249Z,994.16
2022-10-14T05:59:04.237Z,994.19
2022-10-14T06:00:04.203Z,994.23
2022-10-14T06:01:04.173Z,994.22
2022-10-14T06:02:04.157Z,994.22
2022-10-14T06:03:04.168Z,994.23
2022-10-14T06:04:04.108Z,994.17
2022-10-14T06:05:04.087Z,994.17
2022-10-14T06:06:04.095Z,994.18
2022-10-14T06:07:04.043Z,994.19
2022-10-14T06:08:04.028Z,994.17
2022-10-14T06:09:06.603Z,994.15
2022-10-14T06:10:04.008Z,994.13
2022-10-14T06:11:03.954Z,994.11
2022-10-14T06:12:03.934Z,994.14
2022-10-14T06:13:03.912Z,994.12
2022-10-14T06:14:03.886Z,994.11
2022-10-14T06:15:03.872Z,994.13
2022-10-14T06:16:03.841Z,994.10
2022-10-14T06:17:03.826Z,994.12
2022-10-14T06:18:03.799Z,994.14
2022-10-14T06:19:03.776Z,994.10
2022-10-14T06:20:03.765Z,994.11
2022-10-14T06:21:03.733Z,994.15
2022-10-14T06:22:03.724Z,994.17
2022-10-14T06:23:03.689Z,994.19
2022-10-14T06:24:03.703Z,994.19
2022-10-14T06:25:04.597Z,994.21
2022-10-14T06:26:03.630Z,994.18
2022-10-14T06:27:03.606Z,994.22
2022-10-14T06:28:03.595Z,994.22
2022-10-14T06:29:03.639Z,994.20
2022-10-14T06:30:03.547Z,994.21
2022-10-14T06:31:03.518Z,994.23
2022-10-14T06:32:03.499Z,994.20
2022-10-14T06:33:03.478Z,994.18
2022-10-14T06:34:03.456Z,994.17
2022-10-14T06:35:03.448Z,994.14
2022-10-14T06:36:03.424Z,994.08
2022-10-14T06:37:03.400Z,994.11
2022-10-14T06:38:03.423Z,994.12
2022-10-14T06:39:03.349Z,994.14
2022-10-14T06:40:03.330Z,994.13
2022-10-14T06:41:03.311Z,994.14
2022-10-14T06:42:03.301Z,994.11
2022-10-14T06:43:03.276Z,994.08
2022-10-14T06:44:03.250Z,994.05
2022-10-14T06:45:03.219Z,994.10
2022-10-14T06:46:03.206Z,994.10
2022-10-14T06:47:03.176Z,994.09
2022-10-14T06:48:03.173Z,994.10
2022-10-14T06:49:03.169Z,994.13
2022-10-14T06:50:03.126Z,994.11
2022-10-14T06:51:03.092Z,994.14
2022-10-14T06:52:03.115Z,994.17
2022-10-14T06:53:03.069Z,994.13
2022-10-14T06:54:03.045Z,994.11
2022-10-14T06:55:03.007Z,994.16
2022-10-14T06:56:02.993Z,994.15
2022-10-14T06:57:02.974Z,994.12
2022-10-14T06:58:02.951Z,994.14
2022-10-14T06:59:02.923Z,994.16
2022-10-14T07:00:02.900Z,994.13
2022-10-14T07:01:02.899Z,994.14
2022-10-14T07:02:02.958Z,994.16
2022-10-14T07:03:02.844Z,994.14
2022-10-14T07:04:02.825Z,994.17
2022-10-14T07:05:02.811Z,994.15
2022-10-14T07:06:02.780Z,994.17
2022-10-14T07:07:02.763Z,994.18
2022-10-14T07:08:02.744Z,994.19
2022-10-14T07:09:02.720Z,994.21
2022-10-14T07:10:02.703Z,994.14
2022-10-14T07:11:02.674Z,994.21
2022-10-14T07:12:02.663Z,994.17
2022-10-14T07:13:02.664Z,994.21
2022-10-14T07:14:02.621Z,994.22
2022-10-14T07:15:02.594Z,994.20
2022-10-14T07:16:02.575Z,994.22
2022-10-14T07:17:02.581Z,994.20
2022-10-14T07:18:02.526Z,994.25
2022-10-14T07:19:02.517Z,994.25
2022-10-14T07:20:02.488Z,994.26
2022-10-14T07:21:02.466Z,994.27
2022-10-14T07:22:02.447Z,994.25
2022-10-14T07:23:02.449Z,994.29
2022-10-14T07:24:02.418Z,994.27
2022-10-14T07:25:02.387Z,994.26
2022-10-14T07:26:02.381Z,994.27
2022-10-14T07:28:02.326Z,994.26
2022-10-14T07:29:02.405Z,994.28
2022-10-14T07:30:02.302Z,994.28
2022-10-14T07:31:02.249Z,994.30
2022-10-14T07:32:02.297Z,994.30
2022-10-14T07:33:02.214Z,994.28
2022-10-14T07:34:02.213Z,994.28
2022-10-14T07:35:02.208Z,994.31
2022-10-14T07:36:02.156Z,994.30
2022-10-14T07:37:02.149Z,994.27
2022-10-14T07:38:02.125Z,994.28
2022-10-14T07:39:02.100Z,994.22
2022-10-14T07:40:02.186Z,994.25
2022-10-14T07:41:02.055Z,994.18
2022-10-14T07:42:02.033Z,994.21
2022-10-14T07:43:02.034Z,994.19
2022-10-14T07:44:01.992Z,994.23
2022-10-14T07:45:01.991Z,994.22
2022-10-14T07:46:01.963Z,994.25
2022-10-14T07:47:01.934Z,994.19
2022-10-14T07:48:01.900Z,994.24
2022-10-14T07:49:01.888Z,994.21
2022-10-14T07:50:01.885Z,994.21
2022-10-14T07:51:01.875Z,994.18
2022-10-14T07:52:01.833Z,994.23
2022-10-14T07:53:01.834Z,994.23
2022-10-14T07:54:01.827Z,994.27
2022-10-14T07:55:01.773Z,994.27
2022-10-14T07:56:01.755Z,994.27
2022-10-14T07:57:01.741Z,994.26
2022-10-14T07:58:01.729Z,994.25
2022-10-14T07:59:01.685Z,994.23
2022-10-14T08:00:01.690Z,994.26
2022-10-14T08:01:01.673Z,994.22
2022-10-14T08:02:01.691Z,994.25
2022-10-14T08:03:01.605Z,994.21
2022-10-14T08:04:01.592Z,994.23
2022-10-14T08:05:25.552Z,994.17
2022-10-14T08:06:01.549Z,994.20
2022-10-14T08:07:01.530Z,994.20
2022-10-14T08:08:01.522Z,994.18
2022-10-14T08:09:01.518Z,994.18
2022-10-14T08:10:01.466Z,994.16
2022-10-14T08:11:01.444Z,994.18
2022-10-14T08:12:01.432Z,994.14
2022-10-14T08:13:01.424Z,994.12
2022-10-14T08:14:01.394Z,994.08
2022-10-14T08:15:01.382Z,994.10
2022-10-14T08:16:01.465Z,994.11
2022-10-14T08:17:01.331Z,994.12
2022-10-14T08:18:01.351Z,994.14
2022-10-14T08:19:01.371Z,994.13
2022-10-14T08:20:01.296Z,994.19
2022-10-14T08:21:01.266Z,994.16
2022-10-14T08:22:01.365Z,994.15
2022-10-14T08:23:01.244Z,994.12
2022-10-14T08:24:01.378Z,994.10
2022-10-14T08:25:01.176Z,994.12
2022-10-14T08:26:01.169Z,994.12
2022-10-14T08:27:01.159Z,994.13
2022-10-14T08:28:01.166Z,994.13
2022-10-14T08:29:01.238Z,994.14
2022-10-14T08:30:01.134Z,994.09
2022-10-14T08:31:01.083Z,994.06
2022-10-14T08:32:01.089Z,994.07
2022-10-14T08:33:01.122Z,994.05
2022-10-14T08:34:01.047Z,994.02
2022-10-14T08:35:01.107Z,994.01
2022-10-14T08:36:01.039Z,994.06
2022-10-14T08:37:01.039Z,994.09
2022-10-14T08:38:00.946Z,994.06
2022-10-14T08:39:01.006Z,994.07
2022-10-14T08:40:00.905Z,994.08
2022-10-14T08:41:00.878Z,994.08
2022-10-14T08:42:00.867Z,994.05
2022-10-14T08:43:00.851Z,994.05
2022-10-14T08:44:00.829Z,994.07
2022-10-14T08:45:00.835Z,994.06
2022-10-14T08:46:00.790Z,994.04
2022-10-14T08:47:00.767Z,994.01
2022-10-14T08:48:00.777Z,994.04
2022-10-14T08:49:00.736Z,994.07
2022-10-14T08:50:00.713Z,994.08
2022-10-14T08:51:00.705Z,994.08
2022-10-14T08:52:00.693Z,994.10
2022-10-14T08:53:00.677Z,994.10
2022-10-14T08:54:00.875Z,994.11
2022-10-14T08:55:00.627Z,994.09
2022-10-14T08:56:00.637Z,994.10
2022-10-14T08:57:00.654Z,994.09
2022-10-14T08:58:00.612Z,994.06
2022-10-14T08:59:00.551Z,994.10
2022-10-14T09:00:00.536Z,994.02
2022-10-14T09:01:00.530Z,994.02
2022-10-14T09:02:00.492Z,994.02
2022-10-14T09:03:00.514Z,993.98
2022-10-14T09:04:00.582Z,994.00
2022-10-14T09:05:00.440Z,994.00
2022-10-14T09:06:00.413Z,993.99
2022-10-14T09:07:00.396Z,994.01
2022-10-14T09:08:00.393Z,994.03
2022-10-14T09:09:00.362Z,994.01
2022-10-14T09:10:00.356Z,994.06
2022-10-14T09:11:00.364Z,994.07
2022-10-14T09:12:00.302Z,994.03
2022-10-14T09:13:00.292Z,994.01
2022-10-14T09:14:00.303Z,994.02
2022-10-14T09:15:00.251Z,994.01
2022-10-14T09:16:00.255Z,993.99
2022-10-14T09:17:00.286Z,994.00
2022-10-14T09:18:00.283Z,993.98
2022-10-14T09:19:00.182Z,993.97
2022-10-14T09:20:00.173Z,993.96
2022-10-14T09:21:00.166Z,993.97
2022-10-14T09:22:00.117Z,993.95
2022-10-14T09:23:00.145Z,993.93
2022-10-14T09:24:00.111Z,993.92
2022-10-14T09:25:00.075Z,993.90
2022-10-14T09:26:00.043Z,993.91
2022-10-14T09:27:00.037Z,993.91
2022-10-14T09:28:00.028Z,993.90
2022-10-14T09:29:00.099Z,993.92
2022-10-14T09:29:59.967Z,993.91
2022-10-14T09:30:59.961Z,993.88
2022-10-14T09:31:59.925Z,993.84
2022-10-14T09:32:59.926Z,993.84
2022-10-14T09:33:59.888Z,993.87
2022-10-14T09:34:59.875Z,993.86
2022-10-14T09:36:59.853Z,993.89
2022-10-14T09:37:59.821Z,993.88
2022-10-14T09:39:03.743Z,993.85
2022-10-14T09:39:59.801Z,993.87
2022-10-14T09:40:59.780Z,993.84
2022-10-14T09:41:59.745Z,993.77
2022-10-14T09:42:59.726Z,993.77
2022-10-14T09:43:59.711Z,993.74
2022-10-14T09:44:59.724Z,993.73
2022-10-14T09:45:59.681Z,993.69
2022-10-14T09:46:59.782Z,993.67
2022-10-14T09:47:59.638Z,993.66
2022-10-14T09:48:59.624Z,993.63
2022-10-14T09:49:59.597Z,993.61
2022-10-14T09:50:59.605Z,993.56
2022-10-14T09:51:59.571Z,993.60
2022-10-14T09:52:59.569Z,993.60
2022-10-14T09:53:59.648Z,993.60
2022-10-14T09:54:59.534Z,993.52
2022-10-14T09:55:59.493Z,993.57
2022-10-14T09:56:59.489Z,993.58
2022-10-14T09:57:59.480Z,993.54
2022-10-14T09:58:59.450Z,993.52
2022-10-14T09:59:59.462Z,993.54
2022-10-14T10:00:59.402Z,993.51
2022-10-14T10:01:59.397Z,993.51
2022-10-14T10:02:59.377Z,993.50
2022-10-14T10:03:59.528Z,993.48
2022-10-14T10:04:59.342Z,993.48
2022-10-14T10:05:59.325Z,993.47
2022-10-14T10:06:59.304Z,993.49
2022-10-14T10:07:59.304Z,993.52
2022-10-14T10:08:59.293Z,993.51
2022-10-14T10:09:59.257Z,993.48
2022-10-14T10:11:03.646Z,993.43
2022-10-14T10:11:59.212Z,993.43
2022-10-14T10:12:59.195Z,993.36
2022-10-14T10:13:59.186Z,993.38
2022-10-14T10:14:59.164Z,993.36
2022-10-14T10:15:59.139Z,993.32
2022-10-14T10:16:59.135Z,993.32
2022-10-14T10:17:59.117Z,993.28
2022-10-14T10:18:59.097Z,993.31
2022-10-14T10:19:59.081Z,993.28
2022-10-14T10:20:59.066Z,993.29
2022-10-14T10:21:59.365Z,993.26
2022-10-14T10:22:59.028Z,993.22
2022-10-14T10:23:59.020Z,993.20
2022-10-14T10:24:58.984Z,993.20
2022-10-14T10:25:58.977Z,993.15
2022-10-14T10:26:58.977Z,993.10
2022-10-14T10:27:58.934Z,993.14
2022-10-14T10:28:59.010Z,993.16
2022-10-14T10:29:58.930Z,993.16
2022-10-14T10:30:58.901Z,993.15
2022-10-14T10:31:58.967Z,993.12
2022-10-14T10:32:58.852Z,993.15
2022-10-14T10:33:58.860Z,993.15
2022-10-14T10:34:58.825Z,993.14
2022-10-14T10:35:58.809Z,993.18
2022-10-14T10:36:58.798Z,993.17
2022-10-14T10:37:58.777Z,993.18
2022-10-14T10:38:58.760Z,993.20
2022-10-14T10:39:58.793Z,993.17
2022-10-14T10:40:58.728Z,993.14
2022-10-14T10:41:58.698Z,993.14
2022-10-14T10:42:58.693Z,993.12
2022-10-14T10:43:58.680Z,993.12
2022-10-14T10:44:58.688Z,993.07
2022-10-14T10:45:58.657Z,993.12
2022-10-14T10:46:58.647Z,993.16
2022-10-14T10:47:58.622Z,993.13
2022-10-14T10:48:58.613Z,993.13
2022-10-14T10:49:58.602Z,993.14
2022-10-14T10:50:58.576Z,993.09
2022-10-14T10:51:58.562Z,993.05
2022-10-14T10:52:58.559Z,993.07
2022-10-14T10:53:58.528Z,993.08
2022-10-14T10:54:58.527Z,993.01
2022-10-14T10:55:58.500Z,993.03
2022-10-14T10:56:58.484Z,993.03
2022-10-14T10:57:58.475Z,993.02
2022-10-14T10:58:58.465Z,992.99
2022-10-14T10:59:58.434Z,993.03
2022-10-14T11:00:58.429Z,993.03
2022-10-14T11:01:58.398Z,993.05
2022-10-14T11:02:58.386Z,993.06
2022-10-14T11:03:58.374Z,993.00
2022-10-14T11:04:58.361Z,993.05
2022-10-14T11:05:58.340Z,993.04
2022-10-14T11:06:58.333Z,993.06
2022-10-14T11:07:58.305Z,993.02
2022-10-14T11:08:58.302Z,992.97
2022-10-14T11:09:58.267Z,993.00
2022-10-14T11:10:58.265Z,993.00
2022-10-14T11:11:58.246Z,992.93
2022-10-14T11:12:58.241Z,992.94
2022-10-14T11:14:58.194Z,992.89
2022-10-14T11:15:58.175Z,992.95
2022-10-14T11:16:58.164Z,992.98
2022-10-14T11:17:58.142Z,992.95
2022-10-14T11:18:58.122Z,992.93
2022-10-14T11:19:58.112Z,992.90
2022-10-14T11:20:58.097Z,992.81
2022-10-14T11:21:58.085Z,992.84
2022-10-14T11:22:58.062Z,992.82
2022-10-14T11:23:58.041Z,992.81
2022-10-14T11:24:58.075Z,992.83
2022-10-14T11:25:58.010Z,992.78
2022-10-14T11:26:58.013Z,992.80
2022-10-14T11:27:57.958Z,992.79
2022-10-14T11:28:57.977Z,992.79
2022-10-14T11:29:57.915Z,992.76
2022-10-14T11:30:57.902Z,992.74
2022-10-14T11:31:57.881Z,992.67
2022-10-14T11:32:57.865Z,992.67
2022-10-14T11:33:57.852Z,992.69
2022-10-14T11:34:57.829Z,992.70
2022-10-14T11:35:57.814Z,992.67
2022-10-14T11:36:57.803Z,992.65
2022-10-14T11:37:57.798Z,992.66
2022-10-14T11:38:57.757Z,992.66
2022-10-14T11:39:57.746Z,992.67
2022-10-14T11:40:57.718Z,992.62
2022-10-14T11:41:57.720Z,992.62
2022-10-14T11:42:57.705Z,992.61
2022-10-14T11:43:57.679Z,992.61
2022-10-14T11:44:57.657Z,992.59
2022-10-14T11:45:57.649Z,992.53
2022-10-14T11:46:57.624Z,992.53
2022-10-14T11:47:57.603Z,992.54
2022-10-14T11:48:57.605Z,992.51
2022-10-14T11:49:57.572Z,992.48
2022-10-14T11:50:57.556Z,992.48
2022-10-14T11:51:57.530Z,992.46
2022-10-14T11:52:57.517Z,992.43
2022-10-14T11:53:57.506Z,992.43
2022-10-14T11:54:57.480Z,992.41
2022-10-14T11:55:57.457Z,992.42
2022-10-14T11:56:57.450Z,992.40
2022-10-14T11:57:57.425Z,992.39
2022-10-14T11:58:57.413Z,992.40
2022-10-14T11:59:57.393Z,992.42
2022-10-14T12:00:57.374Z,992.38
2022-10-14T12:01:57.354Z,992.36
2022-10-14T12:02:57.389Z,992.36
2022-10-14T12:03:57.326Z,992.33
2022-10-14T12:04:57.305Z,992.31
2022-10-14T12:05:57.285Z,992.28
2022-10-14T12:06:57.265Z,992.30
2022-10-14T12:07:57.261Z,992.30
2022-10-14T12:08:57.266Z,992.29
2022-10-14T12:09:59.797Z,992.31
2022-10-14T12:10:57.193Z,992.31
2022-10-14T12:11:57.177Z,992.32
2022-10-14T12:12:57.166Z,992.31
2022-10-14T12:13:57.144Z,992.34
2022-10-14T12:14:57.125Z,992.32
2022-10-14T12:15:57.111Z,992.27
2022-10-14T12:16:57.085Z,992.25
2022-10-14T12:17:57.067Z,992.27
2022-10-14T12:18:57.070Z,992.21
2022-10-14T12:19:57.028Z,992.21
2022-10-14T12:20:57.014Z,992.19
2022-10-14T12:21:57.004Z,992.20
2022-10-14T12:22:56.976Z,992.19
2022-10-14T12:23:56.959Z,992.19
2022-10-14T12:24:56.943Z,992.19
2022-10-14T12:25:56.928Z,992.21
2022-10-14T12:26:56.917Z,992.18
2022-10-14T12:27:56.889Z,992.14
2022-10-14T12:28:58.782Z,992.16
2022-10-14T12:29:56.850Z,992.21
2022-10-14T12:30:56.855Z,992.15